Time;durP1;ratioP1;P1;durP2;ratioP2;P2;SDS_P1;SDS_P2;PMS_P1;PMS_P2;Temp;Humidity;BMP_temperature;BMP_pressure;BME280_temperature;BME280_humidity;BME280_pressure;Samples;Min_cycle;Max_cycle;Signal;HPM_P1;HPM_P2
2022/04/28 00:00:08;;;;;;;0.00;0.00;;;;;;;10.42;55.24;103063.53;5088452;28;20044;-77
2022/04/28 00:02:34;;;;;;;0.10;0.10;;;;;;;10.38;55.23;103064.38;5100797;28;20363;-77
2022/04/28 00:05:01;;;;;;;0.10;0.10;;;;;;;10.38;55.11;103067.03;5099562;28;20027;-78
2022/04/28 00:07:27;;;;;;;0.85;0.85;;;;;;;10.36;54.58;103065.22;5102624;27;20557;-78
2022/04/28 00:09:53;;;;;;;0.10;0.10;;;;;;;10.35;54.99;103067.81;5096954;28;20028;-78
2022/04/28 00:12:20;;;;;;;0.10;0.10;;;;;;;10.33;54.76;103064.25;5097804;28;20032;-78
2022/04/28 00:14:46;;;;;;;0.10;0.10;;;;;;;10.31;55.40;103066.88;5101082;28;20529;-76
2022/04/28 00:17:12;;;;;;;0.10;0.10;;;;;;;10.29;55.42;103068.63;5091792;28;20046;-77
2022/04/28 00:19:38;;;;;;;0.00;0.00;;;;;;;10.28;55.42;103065.94;5095106;28;20028;-77
2022/04/28 00:22:04;;;;;;;0.10;0.10;;;;;;;10.28;54.82;103069.50;5092178;28;20040;-77
2022/04/28 00:24:30;;;;;;;0.40;0.40;;;;;;;10.24;55.77;103070.28;5100241;28;20025;-77
2022/04/28 00:26:57;;;;;;;0.10;0.10;;;;;;;10.25;54.44;103066.78;5093607;28;20032;-77
2022/04/28 00:29:24;;;;;;;0.20;0.20;;;;;;;10.25;55.58;103065.91;5097135;28;20016;-77
2022/04/28 00:31:50;;;;;;;0.00;0.00;;;;;;;10.23;55.64;103073.84;5104725;28;20039;-78
2022/04/28 00:34:16;;;;;;;0.10;0.10;;;;;;;10.23;55.68;103072.91;5095094;28;20028;-78
2022/04/28 00:36:42;;;;;;;0.10;0.10;;;;;;;10.21;55.40;103072.91;5104053;28;20028;-77
2022/04/28 00:39:08;;;;;;;0.10;0.10;;;;;;;10.20;55.80;103068.47;5102735;28;20031;-77
2022/04/28 00:41:34;;;;;;;0.10;0.10;;;;;;;10.19;55.29;103061.38;5089185;28;20028;-77
2022/04/28 00:44:00;;;;;;;0.00;0.00;;;;;;;10.18;55.27;103067.53;5094973;28;20027;-77
2022/04/28 00:46:27;;;;;;;0.05;0.05;;;;;;;10.18;55.87;103062.22;5100582;28;20032;-78
2022/04/28 00:51:40;;;;;;;0.10;0.10;;;;;;;10.18;55.18;103059.59;5100781;28;20055;-78
2022/04/28 00:54:07;;;;;;;0.10;0.10;;;;;;;10.12;56.46;103070.06;5097395;28;20044;-79
2022/04/28 00:56:34;;;;;;;0.10;0.10;;;;;;;10.15;55.37;103064.84;5096243;28;20061;-77
2022/04/28 00:59:02;;;;;;;0.10;0.10;;;;;;;10.13;56.06;103064.81;5105394;28;20028;-79
2022/04/28 01:01:30;;;;;;;0.10;0.10;;;;;;;10.13;55.27;103066.56;5102740;28;20042;-79
2022/04/28 01:03:56;;;;;;;0.10;0.10;;;;;;;10.11;56.30;103060.38;5095107;28;20092;-79
2022/04/28 01:06:22;;;;;;;0.30;0.30;;;;;;;10.08;56.31;103062.94;5094860;28;20036;-78
2022/04/28 01:08:49;;;;;;;0.13;0.13;;;;;;;10.06;56.76;103054.97;5098706;28;20030;-79
2022/04/28 01:11:16;;;;;;;0.10;0.10;;;;;;;10.05;55.80;103055.84;5099690;28;20238;-78
2022/04/28 01:13:43;;;;;;;0.10;0.10;;;;;;;10.00;56.95;103061.03;5104073;28;20040;-78
2022/04/28 01:16:11;;;;;;;0.47;0.47;;;;;;;9.97;56.27;103058.34;5096158;28;20057;-78
2022/04/28 01:18:38;;;;;;;0.10;0.10;;;;;;;9.95;56.76;103062.72;5095027;28;20028;-78
2022/04/28 01:21:05;;;;;;;0.10;0.10;;;;;;;9.93;56.21;103058.25;5093565;28;20088;-78
2022/04/28 01:23:32;;;;;;;0.10;0.10;;;;;;;9.90;56.01;103064.41;5097996;28;20028;-77
2022/04/28 01:25:59;;;;;;;0.10;0.10;;;;;;;9.90;56.10;103060.88;5093578;28;20052;-78
2022/04/28 01:28:27;;;;;;;0.17;0.17;;;;;;;9.91;56.62;103066.19;5105449;28;20054;-77
2022/04/28 01:30:54;;;;;;;0.10;0.10;;;;;;;9.87;56.91;103065.25;5106761;28;20046;-78
2022/04/28 01:33:20;;;;;;;0.10;0.10;;;;;;;9.85;56.14;103060.78;5102235;28;20028;-77
2022/04/28 01:35:47;;;;;;;0.10;0.10;;;;;;;9.84;56.58;103061.63;5100783;28;20028;-76
2022/04/28 01:38:13;;;;;;;0.00;0.00;;;;;;;9.82;57.07;103060.69;5095817;28;20063;-78
2022/04/28 01:40:39;;;;;;;0.10;0.10;;;;;;;9.83;56.54;103065.13;5098106;28;20056;-76
2022/04/28 01:43:05;;;;;;;0.10;0.10;;;;;;;9.82;56.80;103058.06;5096768;28;20024;-78
2022/04/28 01:45:32;;;;;;;0.10;0.10;;;;;;;9.81;57.28;103072.19;5104110;28;20048;-78
2022/04/28 01:47:58;;;;;;;0.10;0.10;;;;;;;9.79;56.95;103071.25;5104381;28;20102;-76
2022/04/28 01:50:24;;;;;;;0.10;0.10;;;;;;;9.75;57.04;103080.00;5101280;28;20107;-76
2022/04/28 01:55:36;;;;;;;0.10;0.10;;;;;;;9.70;57.94;103080.78;5098494;28;20037;-77
2022/04/28 01:58:02;;;;;;;0.10;0.10;;;;;;;9.68;57.60;103074.59;5095251;28;20114;-76
2022/04/28 02:00:29;;;;;;;0.10;0.10;;;;;;;9.66;57.81;103076.31;5090345;28;20367;-78
2022/04/28 02:02:55;;;;;;;3.92;1.50;;;;;;;9.62;57.92;103069.19;5094977;28;20041;-78
2022/04/28 02:05:21;;;;;;;2.17;0.82;;;;;;;9.57;58.01;103084.06;5101612;28;20505;-78
2022/04/28 02:07:48;;;;;;;0.10;0.10;;;;;;;9.53;58.15;103074.25;5089509;28;20024;-78
2022/04/28 02:10:14;;;;;;;0.10;0.10;;;;;;;9.49;58.38;103083.00;5088257;28;20036;-78
2022/04/28 02:12:40;;;;;;;0.10;0.10;;;;;;;9.45;58.34;103081.19;5102865;28;20098;-77
2022/04/28 02:15:07;;;;;;;0.10;0.10;;;;;;;9.39;59.01;103077.56;5092277;28;20111;-77
2022/04/28 02:17:37;;;;;;;0.30;0.30;;;;;;;9.37;58.88;103068.69;5094216;28;20032;-77
2022/04/28 02:20:06;;;;;;;0.75;0.75;;;;;;;9.33;58.60;103074.78;5093250;28;20047;-78
2022/04/28 02:22:33;;;;;;;0.10;0.10;;;;;;;9.29;58.28;103078.19;5092217;28;20024;-76
2022/04/28 02:24:59;;;;;;;0.32;0.32;;;;;;;9.27;58.46;103081.66;5092270;28;20038;-78
2022/04/28 02:27:27;;;;;;;0.20;0.20;;;;;;;9.23;59.09;103086.00;5090191;28;20051;-77
2022/04/28 02:29:53;;;;;;;1.55;0.80;;;;;;;9.18;59.19;103087.66;5087215;28;20020;-77
2022/04/28 02:32:19;;;;;;;0.10;0.10;;;;;;;9.15;59.00;103087.59;5085512;28;20444;-78
2022/04/28 02:34:45;;;;;;;0.43;0.43;;;;;;;9.10;59.00;103090.13;5082889;28;20032;-77
2022/04/28 02:37:13;;;;;;;0.20;0.20;;;;;;;9.04;59.01;103088.22;5084092;28;20063;-79
2022/04/28 02:39:40;;;;;;;0.10;0.10;;;;;;;8.98;59.68;103084.56;5094546;28;20035;-79
2022/04/28 02:42:06;;;;;;;0.10;0.10;;;;;;;8.95;58.69;103089.78;5095607;28;20043;-78
2022/04/28 02:44:33;;;;;;;0.68;0.68;;;;;;;8.90;59.01;103087.03;5101841;28;20065;-78
2022/04/28 02:46:59;;;;;;;0.10;0.10;;;;;;;8.86;58.83;103085.16;5095423;28;20033;-77
2022/04/28 02:49:25;;;;;;;0.10;0.10;;;;;;;8.85;58.90;103081.63;5096202;28;20039;-78
2022/04/28 02:51:51;;;;;;;0.32;0.32;;;;;;;8.83;59.09;103079.81;5098606;28;20024;-77
2022/04/28 02:54:17;;;;;;;0.10;0.10;;;;;;;8.81;58.31;103086.81;5090688;28;20123;-76
2022/04/28 02:56:43;;;;;;;0.10;0.10;;;;;;;8.78;59.58;103085.00;5092850;28;20053;-76
2022/04/28 02:59:10;;;;;;;0.20;0.20;;;;;;;8.73;59.71;103084.91;5085480;28;20037;-77
2022/04/28 03:01:36;;;;;;;0.10;0.10;;;;;;;8.73;59.10;103089.28;5088549;28;20066;-77
2022/04/28 03:04:02;;;;;;;0.25;0.25;;;;;;;8.68;59.58;103078.59;5088427;28;20025;-78
2022/04/28 03:12:00;;;;;;;0.10;0.10;;;;;;;8.57;59.02;103077.44;5103911;28;20043;-77
2022/04/28 03:14:26;;;;;;;0.10;0.10;;;;;;;8.55;59.25;103087.09;5111979;28;20019;-78
2022/04/28 03:16:53;;;;;;;0.10;0.10;;;;;;;8.53;59.68;103086.16;5098758;28;20024;-78
2022/04/28 03:19:19;;;;;;;0.10;0.10;;;;;;;8.52;59.91;103084.38;5104256;28;20032;-79
2022/04/28 03:21:45;;;;;;;0.10;0.10;;;;;;;8.49;59.55;103086.94;5106499;28;20082;-78
2022/04/28 03:24:11;;;;;;;0.10;0.10;;;;;;;8.45;58.92;103085.94;5106059;28;20028;-77
2022/04/28 03:26:39;;;;;;;0.32;0.32;;;;;;;8.42;59.16;103089.41;5103895;28;20036;-78
2022/04/28 03:29:05;;;;;;;0.17;0.17;;;;;;;8.37;59.90;103085.75;5099178;28;20053;-79
2022/04/28 03:31:32;;;;;;;0.10;0.10;;;;;;;8.34;60.26;103087.44;5106132;28;20084;-78
2022/04/28 03:33:58;;;;;;;0.20;0.20;;;;;;;8.31;60.01;103080.31;5098019;28;20040;-79
2022/04/28 03:36:55;;;;;;;0.10;0.10;;;;;;;8.28;60.26;103085.50;5097316;28;20040;-79
2022/04/28 03:39:10;;;;;;;0.10;0.10;;;;;;;8.27;60.43;103083.72;5111343;28;20489;-78
2022/04/28 03:41:36;;;;;;;0.10;0.10;;;;;;;8.25;60.47;103086.31;5107647;28;20087;-78
2022/04/28 03:44:02;;;;;;;0.10;0.10;;;;;;;8.25;59.47;103090.72;5108185;28;20404;-79
2022/04/28 03:46:28;;;;;;;0.13;0.13;;;;;;;8.23;59.87;103092.41;5101029;28;20160;-78
2022/04/28 03:48:54;;;;;;;0.10;0.10;;;;;;;8.22;59.81;103090.63;5099600;28;20024;-79
2022/04/28 03:51:20;;;;;;;0.10;0.10;;;;;;;8.21;60.90;103091.47;5096957;28;20035;-77
2022/04/28 03:53:46;;;;;;;0.17;0.17;;;;;;;8.19;60.19;103088.81;5100626;28;20032;-77
2022/04/28 03:56:12;;;;;;;0.30;0.30;;;;;;;8.17;60.30;103086.97;5106641;28;20051;-75
2022/04/28 03:58:39;;;;;;;0.10;0.10;;;;;;;8.14;60.59;103085.16;5115810;28;20062;-75
2022/04/28 04:01:05;;;;;;;0.10;0.10;;;;;;;8.13;60.39;103090.41;5095256;28;20032;-75
2022/04/28 04:03:31;;;;;;;0.10;0.10;;;;;;;8.13;60.35;103095.69;5090561;28;20039;-76
2022/04/28 04:05:58;;;;;;;0.15;0.15;;;;;;;8.10;60.96;103089.47;5096553;28;20036;-76
2022/04/28 04:08:24;;;;;;;0.10;0.10;;;;;;;8.08;61.19;103090.28;5085352;28;20029;-77
2022/04/28 04:10:50;;;;;;;0.20;0.20;;;;;;;8.09;60.68;103090.31;5090774;28;20032;-77
2022/04/28 04:13:16;;;;;;;0.10;0.10;;;;;;;8.08;60.66;103095.56;5096354;28;20538;-77
2022/04/28 04:15:42;;;;;;;0.10;0.10;;;;;;;8.09;60.97;103092.06;5085954;28;20028;-76
2022/04/28 04:18:08;;;;;;;0.30;0.30;;;;;;;8.08;61.27;103093.78;5085744;28;20095;-77
2022/04/28 04:20:35;;;;;;;0.10;0.10;;;;;;;8.08;60.72;103098.19;5095899;28;20087;-76
2022/04/28 04:23:04;;;;;;;0.32;0.32;;;;;;;8.08;61.16;103098.19;5096357;28;20059;-77
2022/04/28 04:25:30;;;;;;;0.10;0.10;;;;;;;8.07;61.22;103096.41;5096322;28;20051;-76
2022/04/28 04:27:56;;;;;;;0.30;0.30;;;;;;;8.06;60.59;103094.59;5092154;28;20110;-77
2022/04/28 04:33:08;;;;;;;0.20;0.20;;;;;;;8.01;61.13;103086.59;5086204;28;20408;-77
2022/04/28 04:35:34;;;;;;;0.10;0.10;;;;;;;8.00;60.83;103094.44;5091681;28;20020;-77
2022/04/28 04:38:00;;;;;;;0.10;0.10;;;;;;;7.97;61.20;103097.00;5088660;28;20051;-77
2022/04/28 04:40:26;;;;;;;0.10;0.10;;;;;;;7.97;61.00;103100.53;5090588;28;20163;-78
2022/04/28 04:42:52;;;;;;;0.68;0.68;;;;;;;7.99;60.73;103101.47;5090124;28;20087;-77
2022/04/28 04:45:18;;;;;;;0.10;0.10;;;;;;;7.99;60.71;103103.22;5086030;28;20041;-78
2022/04/28 04:47:45;;;;;;;0.10;0.10;;;;;;;7.99;60.32;103105.84;5091751;28;20123;-77
2022/04/28 04:50:11;;;;;;;0.10;0.10;;;;;;;8.00;60.84;103120.84;5093271;28;20020;-77
2022/04/28 04:52:37;;;;;;;0.10;0.10;;;;;;;7.99;61.25;103119.97;5088970;28;20033;-78
2022/04/28 04:55:04;;;;;;;0.10;0.10;;;;;;;8.01;60.27;103128.81;5088468;28;20103;-77
2022/04/28 04:57:31;;;;;;;0.45;0.45;;;;;;;8.01;61.38;103130.56;5101345;22;20028;-77
2022/04/28 04:59:58;;;;;;;0.30;0.30;;;;;;;8.03;61.27;103132.38;5069413;28;20040;-77
2022/04/28 05:02:24;;;;;;;0.10;0.10;;;;;;;8.04;60.55;103128.03;5066617;28;20115;-77
2022/04/28 05:04:50;;;;;;;0.15;0.15;;;;;;;8.05;61.46;103135.97;5069581;28;20025;-77
2022/04/28 05:07:17;;;;;;;0.10;0.10;;;;;;;8.08;61.15;103138.69;5071745;28;20050;-77
2022/04/28 05:09:43;;;;;;;0.10;0.10;;;;;;;8.11;61.17;103145.78;5091233;28;20081;-77
2022/04/28 05:12:09;;;;;;;0.35;0.35;;;;;;;8.13;61.35;103137.94;5089644;28;20044;-77
2022/04/28 05:14:35;;;;;;;0.10;0.10;;;;;;;8.15;61.36;103141.50;5091359;28;20039;-80
2022/04/28 05:17:02;;;;;;;0.28;0.28;;;;;;;8.17;61.23;103145.94;5087965;28;20104;-79
2022/04/28 05:19:28;;;;;;;0.10;0.10;;;;;;;8.19;60.11;103149.53;5083462;28;20162;-79
2022/04/28 05:21:55;;;;;;;0.45;0.45;;;;;;;8.23;60.90;103151.41;5079977;28;20259;-79
2022/04/28 05:24:21;;;;;;;0.10;0.10;;;;;;;8.26;60.88;103153.22;5082355;28;20040;-79
2022/04/28 05:26:47;;;;;;;0.32;0.32;;;;;;;8.29;61.14;103155.06;5083723;28;20036;-79
2022/04/28 05:29:13;;;;;;;0.10;0.10;;;;;;;8.31;60.60;103158.66;5079744;28;20024;-79
2022/04/28 05:31:40;;;;;;;0.10;0.10;;;;;;;8.31;61.28;103156.91;5089543;28;20422;-79
2022/04/28 05:34:06;;;;;;;1.48;1.38;;;;;;;8.33;61.65;103164.88;5090082;28;20066;-79
2022/04/28 05:36:32;;;;;;;0.15;0.15;;;;;;;8.35;61.43;103169.34;5081185;28;20044;-80
2022/04/28 05:39:00;;;;;;;0.10;0.10;;;;;;;8.36;61.04;103168.50;5090875;28;20376;-79
2022/04/28 05:41:28;;;;;;;0.10;0.10;;;;;;;8.38;61.45;103174.69;5084861;28;20032;-77
2022/04/28 05:46:40;;;;;;;0.10;0.10;;;;;;;8.46;62.04;103174.00;5080241;28;20126;-77
2022/04/28 05:49:08;;;;;;;0.10;0.10;;;;;;;8.51;60.98;103180.34;5087902;28;20054;-76
2022/04/28 05:51:34;;;;;;;0.10;0.10;;;;;;;8.53;62.01;103187.44;5078282;28;20047;-79
2022/04/28 05:54:00;;;;;;;0.10;0.10;;;;;;;8.59;61.99;103192.00;5084072;28;20028;-79
2022/04/28 05:56:28;;;;;;;0.20;0.20;;;;;;;8.63;62.15;103199.16;5082891;28;20028;-79
2022/04/28 05:58:55;;;;;;;0.17;0.17;;;;;;;8.64;61.82;103198.31;5089497;28;20107;-79
2022/04/28 06:01:22;;;;;;;0.20;0.20;;;;;;;8.71;61.13;103202.00;5083495;28;20123;-79
2022/04/28 06:03:48;;;;;;;0.13;0.13;;;;;;;8.77;61.79;103206.56;5082602;28;20024;-80
2022/04/28 06:06:14;;;;;;;0.10;0.10;;;;;;;8.82;61.34;103213.75;5083791;28;20483;-79
2022/04/28 06:08:40;;;;;;;0.10;0.10;;;;;;;8.88;62.03;103207.72;5089016;28;20036;-78
2022/04/28 06:11:06;;;;;;;0.08;0.08;;;;;;;8.93;61.69;103215.78;5090690;28;20040;-80
2022/04/28 06:13:32;;;;;;;0.10;0.10;;;;;;;8.99;61.36;103222.09;5087296;28;20039;-80
2022/04/28 06:15:58;;;;;;;0.10;0.10;;;;;;;9.07;61.40;103222.28;5089360;28;20042;-80
2022/04/28 06:18:26;;;;;;;0.90;0.90;;;;;;;9.11;62.11;103213.59;5088611;28;20469;-80
2022/04/28 06:20:52;;;;;;;0.10;0.10;;;;;;;9.19;61.59;103216.41;5089527;28;20032;-80
2022/04/28 06:23:18;;;;;;;0.10;0.10;;;;;;;9.26;61.58;103213.06;5090267;28;20046;-80
2022/04/28 06:25:44;;;;;;;0.10;0.10;;;;;;;9.35;60.77;103220.31;5090147;28;20074;-80
2022/04/28 06:28:11;;;;;;;0.20;0.20;;;;;;;9.39;60.93;103220.44;5087466;28;20524;-79
2022/04/28 06:30:37;;;;;;;0.10;0.10;;;;;;;9.47;60.52;103223.25;5084242;28;20074;-80
2022/04/28 06:33:04;;;;;;;0.10;0.10;;;;;;;9.52;60.77;103215.38;5086691;28;20516;-80
2022/04/28 06:35:33;;;;;;;0.10;0.10;;;;;;;9.59;61.07;103224.38;5088215;28;20051;-78
2022/04/28 06:38:00;;;;;;;0.10;0.10;;;;;;;9.69;59.67;103232.56;5088468;28;20033;-78
2022/04/28 06:40:26;;;;;;;0.10;0.10;;;;;;;9.75;60.26;103234.44;5080251;28;20480;-78
2022/04/28 06:42:52;;;;;;;0.10;0.10;;;;;;;9.88;60.04;103235.59;5090477;28;20094;-77
2022/04/28 06:45:19;;;;;;;0.10;0.10;;;;;;;9.95;59.83;103236.63;5093785;28;20098;-77
2022/04/28 06:47:45;;;;;;;0.10;0.10;;;;;;;10.07;59.77;103241.28;5096907;28;20024;-78
2022/04/28 06:50:12;;;;;;;0.10;0.10;;;;;;;10.16;58.84;103242.34;5097951;28;20364;-77
2022/04/28 06:52:38;;;;;;;0.70;0.70;;;;;;;10.29;58.94;103242.59;5099533;28;20027;-77
2022/04/28 06:55:06;;;;;;;0.08;0.08;;;;;;;10.38;58.56;103248.13;5084844;28;20038;-77
2022/04/28 06:57:33;;;;;;;0.10;0.10;;;;;;;10.48;58.66;103254.47;5098282;28;20028;-77
2022/04/28 07:00:00;;;;;;;0.10;0.10;;;;;;;10.59;58.18;103260.00;5090280;28;20028;-77
2022/04/28 07:02:26;;;;;;;0.10;0.10;;;;;;;10.61;57.80;103251.19;5085541;28;20020;-78
2022/04/28 07:04:52;;;;;;;0.10;0.10;;;;;;;10.74;57.45;103254.09;5084246;28;20063;-78
2022/04/28 07:07:18;;;;;;;0.10;0.10;;;;;;;10.83;57.21;103256.91;5102043;28;20118;-80
2022/04/28 07:09:44;;;;;;;0.20;0.20;;;;;;;10.87;57.29;103249.91;5092538;28;20491;-79
2022/04/28 07:12:12;;;;;;;0.10;0.10;;;;;;;11.04;57.27;103255.47;5086913;28;20484;-79
2022/04/28 07:14:38;;;;;;;0.63;0.63;;;;;;;11.15;56.99;103264.50;5085419;28;20075;-79
2022/04/28 07:17:04;;;;;;;0.30;0.30;;;;;;;11.17;56.30;103257.47;5085164;28;20032;-80
2022/04/28 07:19:31;;;;;;;0.10;0.10;;;;;;;11.29;55.86;103265.63;5089943;28;20484;-80
2022/04/28 07:21:58;;;;;;;0.00;0.00;;;;;;;11.38;56.23;103266.66;5091429;28;20071;-80
2022/04/28 07:24:24;;;;;;;0.10;0.10;;;;;;;11.47;56.10;103272.09;5091476;28;20099;-80
2022/04/28 07:26:50;;;;;;;0.20;0.20;;;;;;;11.57;55.57;103279.31;5095441;28;20035;-79
2022/04/28 07:29:16;;;;;;;0.15;0.15;;;;;;;11.67;55.87;103274.16;5098041;28;20118;-79
2022/04/28 07:31:43;;;;;;;0.10;0.10;;;;;;;11.75;55.55;103268.09;5095876;28;20097;-79
2022/04/28 07:34:10;;;;;;;0.10;0.10;;;;;;;11.84;54.25;103280.63;5094875;28;20027;-77
2022/04/28 07:36:36;;;;;;;0.08;0.08;;;;;;;11.98;54.50;103283.47;5094432;28;20503;-77
2022/04/28 07:39:02;;;;;;;0.10;0.10;;;;;;;12.04;53.78;103280.03;5095333;28;20108;-76
2022/04/28 07:41:28;;;;;;;0.10;0.10;;;;;;;12.08;53.36;103273.88;5094029;28;20039;-77
2022/04/28 07:43:55;;;;;;;0.43;0.43;;;;;;;12.18;53.88;103283.72;5093502;28;20285;-78
2022/04/28 07:46:21;;;;;;;0.10;0.10;;;;;;;12.22;53.04;103284.66;5089858;28;21774;-76
2022/04/28 07:48:47;;;;;;;0.00;0.00;;;;;;;12.30;53.50;103278.56;5084913;28;20035;-76
2022/04/28 07:51:13;;;;;;;0.03;0.03;;;;;;;12.42;52.81;103287.56;5081276;28;20054;-77
2022/04/28 07:53:40;;;;;;;1.08;0.57;;;;;;;12.50;52.94;103288.56;5086242;28;20042;-77
2022/04/28 07:56:21;;;;;;;0.00;0.00;;;;;;;12.61;51.47;103289.56;5081885;28;20033;-77
2022/04/28 07:58:48;;;;;;;0.10;0.10;;;;;;;12.70;51.60;103288.75;5091415;28;20031;-77
2022/04/28 08:01:14;;;;;;;0.10;0.10;;;;;;;12.79;50.75;103293.28;5085629;28;20047;-77
2022/04/28 08:03:41;;;;;;;0.00;0.00;;;;;;;12.82;50.44;103293.28;5085544;28;20032;-75
2022/04/28 08:06:09;;;;;;;0.10;0.10;;;;;;;12.92;50.69;103288.97;5088224;28;20028;-77
2022/04/28 08:08:36;;;;;;;0.40;0.40;;;;;;;12.94;49.81;103288.09;5085719;28;20028;-77
2022/04/28 08:11:03;;;;;;;0.47;0.47;;;;;;;13.13;50.35;103298.91;5082656;28;20412;-77
2022/04/28 08:13:29;;;;;;;0.13;0.13;;;;;;;13.13;49.90;103290.91;5080787;28;20495;-77
2022/04/28 08:15:57;;;;;;;0.55;0.55;;;;;;;13.27;49.04;103302.59;5084820;28;20081;-77
2022/04/28 08:18:24;;;;;;;1.23;1.13;;;;;;;13.37;49.68;103303.59;5088201;28;20032;-77
2022/04/28 08:20:50;;;;;;;0.00;0.00;;;;;;;13.50;48.42;103301.91;5088521;28;20029;-79
2022/04/28 08:23:16;;;;;;;0.10;0.10;;;;;;;13.66;47.75;103310.03;5093015;28;20054;-79
2022/04/28 08:25:42;;;;;;;0.00;0.00;;;;;;;13.72;48.33;103304.69;5090145;28;20032;-79
2022/04/28 08:28:08;;;;;;;0.63;0.63;;;;;;;13.82;46.66;103306.56;5085841;28;20411;-78
2022/04/28 08:30:35;;;;;;;1.27;1.23;;;;;;;13.95;46.70;103303.97;5094129;28;20027;-79
2022/04/28 08:33:03;;;;;;;0.93;0.93;;;;;;;13.95;46.40;103307.50;5085251;28;20028;-78
2022/04/28 08:35:29;;;;;;;0.08;0.08;;;;;;;14.01;46.57;103304.00;5090607;28;20027;-78
2022/04/28 08:37:56;;;;;;;0.00;0.00;;;;;;;14.07;46.95;103293.38;5082198;28;20036;-78
2022/04/28 08:40:22;;;;;;;0.00;0.00;;;;;;;14.03;47.50;103291.53;5088712;28;20039;-78
2022/04/28 08:42:49;;;;;;;0.00;0.00;;;;;;;14.20;46.79;103295.19;5095084;28;20039;-79
2022/04/28 08:45:20;;;;;;;0.10;0.10;;;;;;;14.33;46.75;103293.47;5095927;28;20824;-79
2022/04/28 08:47:48;;;;;;;0.00;0.00;;;;;;;14.38;46.89;103289.03;5096438;28;20050;-79
2022/04/28 08:50:15;;;;;;;0.10;0.10;;;;;;;14.49;46.04;103283.75;5095839;28;20023;-77
2022/04/28 08:52:41;;;;;;;0.03;0.03;;;;;;;14.57;46.26;103286.41;5095025;28;20032;-78
2022/04/28 08:55:08;;;;;;;0.15;0.15;;;;;;;14.68;46.58;103290.03;5095919;28;20484;-79
2022/04/28 08:57:34;;;;;;;0.10;0.10;;;;;;;14.81;45.90;103282.94;5095553;28;20039;-78
2022/04/28 09:00:01;;;;;;;0.00;0.00;;;;;;;14.86;45.69;103288.28;5095611;28;20529;-78
2022/04/28 09:02:29;;;;;;;0.30;0.30;;;;;;;14.89;45.56;103288.28;5090452;28;20034;-78
2022/04/28 09:05:05;;;;;;;0.00;0.00;;;;;;;15.00;45.29;103280.28;5089345;28;20074;-78
2022/04/28 09:07:34;;;;;;;0.10;0.10;;;;;;;14.99;45.33;103281.16;5085346;28;20020;-78
2022/04/28 09:10:00;;;;;;;0.00;0.00;;;;;;;15.06;45.46;103287.41;5101380;28;20015;-78
2022/04/28 09:12:27;;;;;;;0.05;0.05;;;;;;;15.00;45.23;103290.97;5109139;28;20055;-78
2022/04/28 09:14:55;;;;;;;0.10;0.10;;;;;;;14.90;44.56;103295.38;5094243;28;20088;-78
2022/04/28 09:17:21;;;;;;;0.10;0.10;;;;;;;14.91;44.04;103288.28;5095239;28;20069;-78
2022/04/28 09:19:47;;;;;;;0.20;0.20;;;;;;;14.75;44.39;103285.59;5094158;28;20055;-78
2022/04/28 09:22:14;;;;;;;3.60;1.35;;;;;;;14.82;44.62;103284.72;5094077;28;20036;-78
2022/04/28 09:24:44;;;;;;;0.10;0.10;;;;;;;14.88;44.55;103281.19;5095305;28;20021;-77
2022/04/28 09:27:12;;;;;;;0.00;0.00;;;;;;;14.88;44.45;103276.72;5096355;28;20430;-78
2022/04/28 09:29:40;;;;;;;0.20;0.20;;;;;;;14.92;43.99;103271.41;5100920;28;20569;-77
2022/04/28 09:32:11;;;;;;;0.90;0.90;;;;;;;14.96;43.76;103273.16;5093885;28;20058;-79
2022/04/28 09:34:47;;;;;;;0.10;0.10;;;;;;;15.05;44.19;103273.16;5093932;28;20479;-77
2022/04/28 09:37:22;;;;;;;0.10;0.10;;;;;;;15.08;44.58;103273.16;5097870;28;20027;-78
2022/04/28 09:42:43;;;;;;;0.10;0.10;;;;;;;15.12;43.38;103266.94;5112044;28;20042;-78
2022/04/28 09:45:12;;;;;;;0.00;0.00;;;;;;;15.14;43.52;103262.50;5098056;28;20028;-77
2022/04/28 09:47:38;;;;;;;0.10;0.10;;;;;;;15.20;43.72;103265.16;5110847;28;20036;-78
2022/04/28 09:50:19;;;;;;;0.05;0.05;;;;;;;15.39;43.39;103262.47;5097723;28;20034;-79
2022/04/28 09:52:52;;;;;;;0.00;0.00;;;;;;;15.45;43.56;103270.47;5096673;28;20632;-78
2022/04/28 09:55:19;;;;;;;0.00;0.00;;;;;;;15.47;43.02;103273.13;5092298;28;20109;-78
2022/04/28 09:57:45;;;;;;;5.95;1.48;;;;;;;15.49;42.82;103274.91;5100883;28;20055;-78
2022/04/28 10:00:12;;;;;;;0.10;0.10;;;;;;;15.48;43.06;103273.13;5105929;28;20415;-78
2022/04/28 10:02:38;;;;;;;0.68;0.55;;;;;;;15.48;43.36;103274.94;5093481;28;20414;-78
2022/04/28 10:05:06;;;;;;;0.40;0.40;;;;;;;15.44;42.24;103271.38;5096120;28;20035;-78
2022/04/28 10:07:35;;;;;;;0.00;0.00;;;;;;;15.57;43.19;103266.00;5095807;28;20033;-78
2022/04/28 10:10:01;;;;;;;0.22;0.22;;;;;;;15.62;43.60;103253.50;5095949;28;20028;-78
2022/04/28 10:12:28;;;;;;;0.10;0.10;;;;;;;15.78;43.17;103260.59;5094895;28;20039;-77
2022/04/28 10:14:55;;;;;;;0.10;0.10;;;;;;;15.88;42.33;103263.28;5096651;28;20377;-78
2022/04/28 10:17:29;;;;;;;0.00;0.00;;;;;;;15.97;41.71;103255.22;5099404;28;20174;-79
2022/04/28 10:20:01;;;;;;;0.00;0.00;;;;;;;15.97;42.33;103256.09;5099356;28;20028;-79
2022/04/28 10:22:32;;;;;;;0.05;0.05;;;;;;;16.00;41.99;103253.41;5099598;28;20039;-78
2022/04/28 10:33:26;;;;;;;0.00;0.00;;;;;;;16.45;40.90;103250.50;5096828;28;20672;-78
2022/04/28 10:35:55;;;;;;;0.15;0.15;;;;;;;16.50;40.85;103245.13;5098948;28;20114;-78
2022/04/28 10:38:30;;;;;;;0.38;0.38;;;;;;;16.60;41.02;103248.63;5097852;28;20028;-78
2022/04/28 10:41:08;;;;;;;0.20;0.20;;;;;;;16.52;40.47;103248.66;5097076;28;20040;-78
2022/04/28 10:49:02;;;;;;;0.00;0.00;;;;;;;16.76;39.50;103249.38;5071292;28;20360;-78
2022/04/28 10:51:31;;;;;;;0.10;0.10;;;;;;;16.77;39.69;103262.78;5062136;28;20025;-78
2022/04/28 10:59:35;;;;;;;2.13;0.87;;;;;;;17.09;39.73;103247.38;5099875;27;1177742;-79
2022/04/28 11:04:52;;;;;;;0.10;0.10;;;;;;;17.30;40.11;103248.97;5122510;27;20392;-77
2022/04/28 11:07:23;;;;;;;0.10;0.10;;;;;;;17.30;39.24;103244.50;5123736;28;20074;-78
2022/04/28 11:09:55;;;;;;;0.00;0.00;;;;;;;17.35;39.15;103244.44;5111465;28;20025;-78
2022/04/28 11:12:23;;;;;;;0.25;0.25;;;;;;;17.37;39.72;103248.00;5104861;28;20078;-77
2022/04/28 11:14:53;;;;;;;0.25;0.25;;;;;;;17.45;39.04;103254.16;5103836;28;20031;-77
2022/04/28 11:17:21;;;;;;;0.10;0.10;;;;;;;17.46;39.30;103245.22;5104383;28;20042;-77
2022/04/28 11:19:50;;;;;;;0.00;0.00;;;;;;;17.50;39.05;103248.75;5106368;28;20054;-76
2022/04/28 11:22:16;;;;;;;0.00;0.00;;;;;;;17.52;40.05;103243.38;5104698;28;20092;-79
2022/04/28 11:24:44;;;;;;;0.00;0.00;;;;;;;17.73;39.26;103247.59;5104066;28;20088;-77
2022/04/28 11:27:27;;;;;;;0.38;0.38;;;;;;;17.93;38.30;103240.22;5102162;28;20039;-76
2022/04/28 11:29:58;;;;;;;0.00;0.00;;;;;;;17.82;37.92;103235.88;5095886;28;20112;-77
2022/04/28 11:32:25;;;;;;;0.00;0.00;;;;;;;17.86;37.96;103235.84;5102678;28;20050;-78
2022/04/28 11:34:52;;;;;;;0.45;0.40;;;;;;;17.95;38.35;103234.88;5108639;28;20061;-78
2022/04/28 11:37:22;;;;;;;0.00;0.00;;;;;;;18.06;38.45;103229.38;5126421;28;20038;-78
2022/04/28 11:39:51;;;;;;;0.10;0.10;;;;;;;18.17;38.13;103232.78;5123966;28;20024;-78
2022/04/28 11:42:19;;;;;;;0.10;0.10;;;;;;;18.25;38.25;103230.00;5123135;28;20032;-76
2022/04/28 11:44:52;;;;;;;0.00;0.00;;;;;;;18.38;38.32;103226.22;5116060;28;20027;-77
2022/04/28 11:47:19;;;;;;;0.00;0.00;;;;;;;18.42;37.35;103227.94;5113321;28;20028;-77
2022/04/28 11:49:49;;;;;;;0.10;0.10;;;;;;;18.57;37.63;103220.56;5120709;28;20074;-77
2022/04/28 11:55:01;;;;;;;0.38;0.38;;;;;;;18.81;38.05;103213.03;5125233;27;20372;-77
2022/04/28 11:57:27;;;;;;;0.05;0.05;;;;;;;18.85;36.14;103209.38;5127044;28;20050;-79
2022/04/28 11:59:54;;;;;;;0.00;0.00;;;;;;;18.78;36.49;103203.22;5125809;28;20027;-79
2022/04/28 12:02:36;;;;;;;0.10;0.10;;;;;;;18.88;37.49;103209.34;5125456;28;20031;-77
2022/04/28 12:05:16;;;;;;;1.75;0.55;;;;;;;18.89;37.39;103211.06;5125484;28;20020;-77
2022/04/28 12:07:51;;;;;;;0.00;0.00;;;;;;;18.89;36.87;103200.34;5124621;28;20032;-79
2022/04/28 12:15:58;;;;;;;0.00;0.00;;;;;;;19.11;36.39;103200.88;5125210;28;20194;-77
2022/04/28 12:21:16;;;;;;;0.20;0.20;;;;;;;19.40;37.25;103188.66;5123201;28;20046;-78